Time;durP1;ratioP1;P1;durP2;ratioP2;P2;SDS_P1;SDS_P2;PMS_P1;PMS_P2;Temp;Humidity;BMP_temperature;BMP_pressure;BME280_temperature;BME280_humidity;BME280_pressure;Samples;Min_cycle;Max_cycle;Signal;HPM_P1;HPM_P2
2023/06/18 00:02:00;;;;;;;8.27;7.40;;;;;;;;;;5058559;28;20770;-62
2023/06/18 00:04:28;;;;;;;7.83;7.03;;;;;;;;;;5044341;28;20240;-62
2023/06/18 00:06:55;;;;;;;10.13;7.03;;;;;;;;;;5061538;28;20259;-62
2023/06/18 00:09:23;;;;;;;7.73;6.50;;;;;;;;;;5059819;28;20202;-62
2023/06/18 00:11:51;;;;;;;6.97;6.27;;;;;;;;;;5063432;28;20229;-62
2023/06/18 00:14:18;;;;;;;7.07;6.37;;;;;;;;;;5051693;28;20217;-61
2023/06/18 00:16:46;;;;;;;7.23;6.50;;;;;;;;;;5040610;28;21163;-61
2023/06/18 00:19:14;;;;;;;8.43;6.60;;;;;;;;;;5058513;28;20292;-61
2023/06/18 00:21:42;;;;;;;8.57;6.87;;;;;;;;;;5040246;28;20228;-61
2023/06/18 00:24:09;;;;;;;7.03;6.43;;;;;;;;;;5055978;28;20270;-65
2023/06/18 00:26:36;;;;;;;8.23;6.50;;;;;;;;;;5039947;28;20280;-64
2023/06/18 00:29:04;;;;;;;7.90;6.93;;;;;;;;;;5067511;28;20232;-64
2023/06/18 00:31:32;;;;;;;7.97;7.17;;;;;;;;;;5038514;28;20245;-64
2023/06/18 00:34:06;;;;;;;7.33;6.63;;;;;;;;;;5044091;28;21860;-63
2023/06/18 00:36:38;;;;;;;8.63;6.80;;;;;;;;;;5049142;28;20201;-62
2023/06/18 00:39:06;;;;;;;8.67;7.33;;;;;;;;;;5051237;28;20201;-64
2023/06/18 00:41:34;;;;;;;9.10;6.90;;;;;;;;;;5061195;28;20202;-63
2023/06/18 00:44:02;;;;;;;8.17;6.90;;;;;;;;;;5062125;28;20203;-62
2023/06/18 00:46:30;;;;;;;9.77;6.93;;;;;;;;;;5058647;28;20205;-62
2023/06/18 00:48:58;;;;;;;7.57;6.87;;;;;;;;;;5059760;28;20211;-61
2023/06/18 00:51:31;;;;;;;7.97;6.87;;;;;;;;;;5052293;28;20230;-63
2023/06/18 00:53:58;;;;;;;10.47;8.60;;;;;;;;;;5064030;28;20296;-62
2023/06/18 00:56:29;;;;;;;8.40;7.60;;;;;;;;;;5055412;28;20198;-62
2023/06/18 00:58:57;;;;;;;9.03;8.03;;;;;;;;;;5053239;28;20197;-64
2023/06/18 01:01:25;;;;;;;8.27;7.33;;;;;;;;;;5064817;28;20288;-62
2023/06/18 01:03:56;;;;;;;8.40;7.60;;;;;;;;;;5065436;28;20251;-62
2023/06/18 01:06:26;;;;;;;8.17;7.37;;;;;;;;;;5060247;28;20280;-64
2023/06/18 01:08:53;;;;;;;8.97;7.00;;;;;;;;;;5071393;28;20205;-64
2023/06/18 01:11:21;;;;;;;7.83;7.00;;;;;;;;;;5064210;28;20229;-63
2023/06/18 01:13:52;;;;;;;8.53;6.70;;;;;;;;;;5056828;28;20233;-64
2023/06/18 01:16:24;;;;;;;7.70;6.90;;;;;;;;;;5053181;28;20285;-64
2023/06/18 01:18:51;;;;;;;11.33;7.57;;;;;;;;;;5053752;28;20210;-64
2023/06/18 01:21:21;;;;;;;9.73;7.80;;;;;;;;;;5059283;28;20216;-61
2023/06/18 01:24:11;;;;;;;8.57;7.50;;;;;;;;;;5058939;28;20252;-64
2023/06/18 01:26:41;;;;;;;8.63;7.30;;;;;;;;;;5053884;28;20868;-61
2023/06/18 01:29:10;;;;;;;8.37;7.53;;;;;;;;;;5051381;28;20329;-62
2023/06/18 01:31:37;;;;;;;8.07;7.27;;;;;;;;;;5048385;28;20229;-63
2023/06/18 01:34:06;;;;;;;8.90;7.33;;;;;;;;;;5056870;28;20202;-61
2023/06/18 01:36:34;;;;;;;7.93;7.17;;;;;;;;;;5055500;28;20201;-63
2023/06/18 01:39:28;;;;;;;7.73;7.03;;;;;;;;;;5055720;28;20303;-62
2023/06/18 01:42:01;;;;;;;7.33;6.63;;;;;;;;;;5048486;28;20734;-60
2023/06/18 01:44:30;;;;;;;8.00;7.20;;;;;;;;;;5034058;28;20263;-63
2023/06/18 01:46:59;;;;;;;9.50;7.47;;;;;;;;;;5055806;28;20216;-63
2023/06/18 01:49:27;;;;;;;12.50;9.00;;;;;;;;;;5052288;28;20580;-62
2023/06/18 01:51:57;;;;;;;11.50;8.47;;;;;;;;;;5053944;28;20267;-63
2023/06/18 01:54:24;;;;;;;8.20;7.30;;;;;;;;;;5052298;28;20604;-63
2023/06/18 01:56:51;;;;;;;11.63;7.70;;;;;;;;;;5053974;28;20207;-63
2023/06/18 01:59:20;;;;;;;9.03;8.10;;;;;;;;;;5059926;28;20243;-63
2023/06/18 02:01:47;;;;;;;7.47;6.60;;;;;;;;;;5055081;28;20225;-63
2023/06/18 02:04:14;;;;;;;8.30;6.23;;;;;;;;;;5057412;28;20247;-63
2023/06/18 02:06:42;;;;;;;7.50;6.40;;;;;;;;;;5041080;28;20206;-63
2023/06/18 02:09:09;;;;;;;8.17;6.50;;;;;;;;;;5060813;28;20675;-64
2023/06/18 02:11:36;;;;;;;7.37;6.40;;;;;;;;;;5055815;28;20697;-64
2023/06/18 02:14:04;;;;;;;8.20;6.80;;;;;;;;;;5073330;28;20209;-63
2023/06/18 02:16:32;;;;;;;6.90;5.77;;;;;;;;;;5064257;28;20201;-63
2023/06/18 02:18:59;;;;;;;8.37;6.03;;;;;;;;;;5060953;28;20203;-63
2023/06/18 02:21:26;;;;;;;6.93;6.20;;;;;;;;;;5061877;28;20228;-63
2023/06/18 02:23:54;;;;;;;8.13;6.40;;;;;;;;;;5053527;28;20223;-62
2023/06/18 02:26:22;;;;;;;7.67;6.30;;;;;;;;;;5049804;28;20255;-63
2023/06/18 02:28:49;;;;;;;6.90;6.20;;;;;;;;;;5065468;28;20275;-63
2023/06/18 02:31:17;;;;;;;7.87;6.50;;;;;;;;;;5043008;28;20255;-64
2023/06/18 02:33:44;;;;;;;7.17;6.27;;;;;;;;;;5050250;28;20226;-62
2023/06/18 02:36:12;;;;;;;7.10;6.50;;;;;;;;;;5053801;28;20240;-63
2023/06/18 02:38:39;;;;;;;9.73;6.93;;;;;;;;;;5048260;28;20197;-63
2023/06/18 02:41:07;;;;;;;7.67;6.87;;;;;;;;;;5056775;28;20202;-62
2023/06/18 02:43:36;;;;;;;6.90;6.20;;;;;;;;;;5040408;28;20222;-65
2023/06/18 02:46:03;;;;;;;7.07;6.37;;;;;;;;;;5053777;28;20247;-63
2023/06/18 02:48:31;;;;;;;7.03;6.33;;;;;;;;;;5056028;28;20201;-63
2023/06/18 02:50:58;;;;;;;7.80;6.50;;;;;;;;;;5052523;28;21154;-62
2023/06/18 02:53:25;;;;;;;6.63;6.03;;;;;;;;;;5047428;28;20295;-63
2023/06/18 02:55:53;;;;;;;6.80;6.13;;;;;;;;;;5058541;28;20197;-63
2023/06/18 02:58:30;;;;;;;6.73;6.07;;;;;;;;;;5052907;28;20201;-61
2023/06/18 03:00:59;;;;;;;7.20;6.43;;;;;;;;;;5057214;28;20208;-63
2023/06/18 03:03:26;;;;;;;7.50;6.20;;;;;;;;;;5049895;28;20271;-64
2023/06/18 03:05:54;;;;;;;7.87;6.00;;;;;;;;;;5056149;28;20270;-64
2023/06/18 03:08:21;;;;;;;7.40;6.50;;;;;;;;;;5057281;28;20202;-61
2023/06/18 03:10:51;;;;;;;7.03;6.33;;;;;;;;;;5058559;28;20213;-61
2023/06/18 03:13:19;;;;;;;8.80;7.63;;;;;;;;;;5056033;28;20248;-64
2023/06/18 03:15:46;;;;;;;20.53;14.00;;;;;;;;;;5053194;28;20671;-61
2023/06/18 03:18:14;;;;;;;17.30;12.07;;;;;;;;;;5058231;28;20671;-61
2023/06/18 03:20:42;;;;;;;12.80;9.93;;;;;;;;;;5065554;28;20687;-62
2023/06/18 03:23:10;;;;;;;12.13;8.80;;;;;;;;;;5058233;28;20229;-65
2023/06/18 03:25:37;;;;;;;11.60;8.47;;;;;;;;;;5054698;28;20201;-63
2023/06/18 03:28:04;;;;;;;11.17;8.80;;;;;;;;;;5060382;28;20625;-63
2023/06/18 03:30:32;;;;;;;11.00;8.90;;;;;;;;;;5053619;28;20214;-66
2023/06/18 03:33:02;;;;;;;8.77;7.43;;;;;;;;;;5056665;28;20898;-62
2023/06/18 03:35:30;;;;;;;8.67;7.60;;;;;;;;;;5052828;28;20201;-65
2023/06/18 03:37:57;;;;;;;8.03;7.23;;;;;;;;;;5058041;28;20250;-65
2023/06/18 03:40:25;;;;;;;7.53;6.77;;;;;;;;;;5054335;28;20813;-68
2023/06/18 03:42:52;;;;;;;7.87;7.03;;;;;;;;;;5051758;28;20289;-60
2023/06/18 03:45:20;;;;;;;9.30;7.77;;;;;;;;;;5065158;28;20275;-61
2023/06/18 03:47:48;;;;;;;9.00;7.27;;;;;;;;;;5058226;28;20214;-65
2023/06/18 03:50:15;;;;;;;7.17;6.47;;;;;;;;;;5063275;28;20248;-65
2023/06/18 03:52:42;;;;;;;8.37;6.50;;;;;;;;;;5061160;28;20246;-62
2023/06/18 03:55:09;;;;;;;11.50;7.20;;;;;;;;;;5061273;28;20736;-62
2023/06/18 03:57:37;;;;;;;8.43;6.67;;;;;;;;;;5053829;28;20201;-67
2023/06/18 04:00:07;;;;;;;7.53;6.33;;;;;;;;;;5056702;28;20771;-67
2023/06/18 04:02:34;;;;;;;8.83;6.60;;;;;;;;;;5058776;28;20355;-62
2023/06/18 04:05:02;;;;;;;7.50;6.70;;;;;;;;;;5050820;28;20205;-59
2023/06/18 04:07:29;;;;;;;7.47;6.73;;;;;;;;;;5050779;28;20671;-68
2023/06/18 04:09:56;;;;;;;6.93;6.27;;;;;;;;;;5049350;28;20760;-63
2023/06/18 04:12:24;;;;;;;7.47;6.50;;;;;;;;;;5051321;28;20881;-68
2023/06/18 04:14:51;;;;;;;7.93;7.13;;;;;;;;;;5050532;28;21175;-65
2023/06/18 04:17:18;;;;;;;8.63;7.60;;;;;;;;;;5052817;28;21033;-64
2023/06/18 04:19:45;;;;;;;8.50;7.60;;;;;;;;;;5057090;28;20203;-60
2023/06/18 04:22:13;;;;;;;9.77;7.57;;;;;;;;;;5040794;28;20226;-60
2023/06/18 04:24:40;;;;;;;7.93;7.13;;;;;;;;;;5050998;28;20706;-59
2023/06/18 04:27:07;;;;;;;7.97;7.00;;;;;;;;;;5057023;28;20788;-63
2023/06/18 04:29:35;;;;;;;7.37;6.67;;;;;;;;;;5052416;28;20252;-64
2023/06/18 04:32:02;;;;;;;8.63;6.63;;;;;;;;;;5040122;28;20240;-62
2023/06/18 04:34:29;;;;;;;8.07;7.17;;;;;;;;;;5051697;28;20291;-62
2023/06/18 04:36:58;;;;;;;12.17;8.70;;;;;;;;;;5034975;28;21439;-65
2023/06/18 04:39:26;;;;;;;8.13;7.03;;;;;;;;;;5048227;28;20698;-65
2023/06/18 04:41:55;;;;;;;8.30;6.90;;;;;;;;;;5035905;28;20221;-62
2023/06/18 04:44:22;;;;;;;9.80;7.13;;;;;;;;;;5051588;28;20221;-61
2023/06/18 04:46:49;;;;;;;7.13;6.43;;;;;;;;;;5055756;28;20218;-61
2023/06/18 04:49:17;;;;;;;8.47;6.60;;;;;;;;;;5052358;28;20217;-62
2023/06/18 04:51:44;;;;;;;7.37;6.40;;;;;;;;;;5057779;28;20228;-61
2023/06/18 04:54:11;;;;;;;7.30;6.60;;;;;;;;;;5051954;28;20206;-61
2023/06/18 04:56:39;;;;;;;8.03;6.80;;;;;;;;;;5053400;28;20289;-61
2023/06/18 04:59:06;;;;;;;9.23;7.07;;;;;;;;;;5051927;28;20270;-65
2023/06/18 05:01:34;;;;;;;7.90;7.10;;;;;;;;;;5054127;28;20609;-61
2023/06/18 05:04:01;;;;;;;9.40;6.97;;;;;;;;;;5054230;28;20207;-64
2023/06/18 05:06:28;;;;;;;7.63;6.83;;;;;;;;;;5054807;28;20202;-65
2023/06/18 05:08:56;;;;;;;10.70;9.30;;;;;;;;;;5056627;28;20206;-62
2023/06/18 05:11:23;;;;;;;13.90;12.13;;;;;;;;;;5063854;28;20197;-65
2023/06/18 05:13:50;;;;;;;13.97;11.67;;;;;;;;;;5051911;28;20281;-62
2023/06/18 05:16:18;;;;;;;14.10;10.63;;;;;;;;;;5052929;28;20259;-63
2023/06/18 05:18:45;;;;;;;10.70;8.03;;;;;;;;;;5052633;28;20692;-62
2023/06/18 05:21:12;;;;;;;8.97;8.00;;;;;;;;;;5061042;28;20217;-61
2023/06/18 05:23:40;;;;;;;7.80;7.03;;;;;;;;;;5065956;28;20234;-61
2023/06/18 05:26:07;;;;;;;9.63;7.15;;;;;;;;;;5056823;28;20206;-65
2023/06/18 05:28:34;;;;;;;14.10;10.70;;;;;;;;;;5052955;28;20197;-62
2023/06/18 05:31:02;;;;;;;10.10;7.63;;;;;;;;;;5040640;28;20264;-63
2023/06/18 05:33:29;;;;;;;11.50;8.25;;;;;;;;;;5065184;28;20225;-65
2023/06/18 05:35:56;;;;;;;7.78;6.90;;;;;;;;;;5065838;28;20146;-62
2023/06/18 05:38:24;;;;;;;9.13;8.15;;;;;;;;;;5061634;28;20259;-64
2023/06/18 05:40:51;;;;;;;7.72;7.03;;;;;;;;;;5052980;28;20679;-60
2023/06/18 05:43:19;;;;;;;9.63;7.03;;;;;;;;;;5051155;28;20771;-63
2023/06/18 05:45:46;;;;;;;6.47;5.88;;;;;;;;;;5055518;28;20213;-60
2023/06/18 05:48:14;;;;;;;7.80;6.00;;;;;;;;;;5053284;28;20217;-61
2023/06/18 05:50:42;;;;;;;6.03;5.38;;;;;;;;;;5054719;28;20259;-67
2023/06/18 05:53:09;;;;;;;7.32;6.25;;;;;;;;;;5046535;28;20260;-67
2023/06/18 05:55:39;;;;;;;6.18;5.65;;;;;;;;;;5055539;28;20208;-66
2023/06/18 05:58:06;;;;;;;6.95;5.80;;;;;;;;;;5059198;28;20810;-67
2023/06/18 06:00:34;;;;;;;6.38;5.68;;;;;;;;;;5068764;28;20214;-62
2023/06/18 06:03:01;;;;;;;5.90;5.43;;;;;;;;;;5052046;28;20233;-66
2023/06/18 06:05:29;;;;;;;6.55;5.90;;;;;;;;;;5067098;28;20218;-65
2023/06/18 06:07:57;;;;;;;7.07;5.93;;;;;;;;;;5071022;28;20248;-62
2023/06/18 06:10:24;;;;;;;6.07;5.47;;;;;;;;;;5069609;28;20202;-62
2023/06/18 06:12:53;;;;;;;6.35;5.75;;;;;;;;;;5056035;28;20233;-61
2023/06/18 06:15:21;;;;;;;6.40;5.68;;;;;;;;;;5058497;28;20200;-61
2023/06/18 06:17:48;;;;;;;6.35;5.70;;;;;;;;;;5044948;28;20216;-63
2023/06/18 06:20:15;;;;;;;6.13;5.43;;;;;;;;;;5075250;28;21063;-63
2023/06/18 06:22:42;;;;;;;7.38;6.20;;;;;;;;;;5078757;28;20228;-62
2023/06/18 06:25:10;;;;;;;7.20;6.43;;;;;;;;;;5061185;28;20244;-62
2023/06/18 06:27:38;;;;;;;7.50;6.28;;;;;;;;;;5069008;28;20342;-62
2023/06/18 06:30:08;;;;;;;6.55;5.95;;;;;;;;;;5059746;28;20269;-62
2023/06/18 06:32:36;;;;;;;7.05;6.15;;;;;;;;;;5065942;28;20232;-63
2023/06/18 06:35:03;;;;;;;7.05;6.32;;;;;;;;;;5069824;28;20201;-63
2023/06/18 06:37:32;;;;;;;6.78;6.15;;;;;;;;;;5070611;28;20254;-64
2023/06/18 06:39:59;;;;;;;6.43;5.82;;;;;;;;;;5070499;28;20263;-63
2023/06/18 06:42:27;;;;;;;7.35;6.18;;;;;;;;;;5068107;28;20222;-64
2023/06/18 06:44:54;;;;;;;6.53;5.93;;;;;;;;;;5063115;28;20300;-63
2023/06/18 06:47:21;;;;;;;6.78;6.18;;;;;;;;;;5065977;28;20210;-63
2023/06/18 06:49:49;;;;;;;6.82;6.13;;;;;;;;;;5069675;28;20213;-63
2023/06/18 06:52:16;;;;;;;8.65;6.72;;;;;;;;;;5065094;28;20321;-62
2023/06/18 06:54:43;;;;;;;6.78;6.18;;;;;;;;;;5062978;28;20263;-62
2023/06/18 06:57:11;;;;;;;10.25;5.78;;;;;;;;;;5059328;28;20204;-63
2023/06/18 06:59:38;;;;;;;8.63;6.30;;;;;;;;;;5070047;28;20255;-62
2023/06/18 07:02:06;;;;;;;8.90;5.97;;;;;;;;;;5062580;28;20315;-62
2023/06/18 07:04:33;;;;;;;5.78;5.28;;;;;;;;;;5064223;28;20210;-61
2023/06/18 07:07:00;;;;;;;11.20;5.43;;;;;;;;;;5066740;28;20212;-61
2023/06/18 07:09:29;;;;;;;5.93;5.07;;;;;;;;;;5074113;28;20646;-60
2023/06/18 07:11:56;;;;;;;6.53;5.03;;;;;;;;;;5065232;28;20275;-64
2023/06/18 07:14:23;;;;;;;6.80;5.25;;;;;;;;;;5057692;28;20225;-62
2023/06/18 07:16:51;;;;;;;7.28;5.55;;;;;;;;;;5054444;28;20286;-61
2023/06/18 07:19:19;;;;;;;6.88;5.68;;;;;;;;;;5041793;28;20202;-62
2023/06/18 07:21:46;;;;;;;5.50;5.00;;;;;;;;;;5047272;28;20229;-68
2023/06/18 07:24:14;;;;;;;6.72;5.57;;;;;;;;;;5040863;28;20225;-65
2023/06/18 07:26:41;;;;;;;5.70;5.10;;;;;;;;;;5044291;28;20205;-63
2023/06/18 07:29:09;;;;;;;5.70;5.20;;;;;;;;;;5040383;28;20209;-62
2023/06/18 07:31:37;;;;;;;6.13;5.18;;;;;;;;;;5048351;28;20608;-65
2023/06/18 07:34:04;;;;;;;5.68;5.07;;;;;;;;;;5048731;28;20241;-60
2023/06/18 07:36:31;;;;;;;6.63;5.72;;;;;;;;;;5058077;28;20202;-63
2023/06/18 07:38:58;;;;;;;5.50;5.00;;;;;;;;;;5060032;28;20205;-64
2023/06/18 07:41:26;;;;;;;5.82;5.32;;;;;;;;;;5054679;28;20828;-63
2023/06/18 07:43:53;;;;;;;5.97;5.38;;;;;;;;;;5039550;28;20209;-63
2023/06/18 07:46:21;;;;;;;5.57;5.00;;;;;;;;;;5056317;28;20240;-63
2023/06/18 07:48:58;;;;;;;5.97;5.10;;;;;;;;;;5051612;28;20202;-66
2023/06/18 07:51:25;;;;;;;5.60;5.10;;;;;;;;;;5049741;28;23082;-64
2023/06/18 07:53:53;;;;;;;13.23;5.68;;;;;;;;;;5048031;28;20724;-62
2023/06/18 07:56:26;;;;;;;10.32;5.82;;;;;;;;;;5051544;28;20195;-63
2023/06/18 07:58:56;;;;;;;7.38;5.47;;;;;;;;;;5059699;28;20197;-63
2023/06/18 08:01:23;;;;;;;5.85;5.25;;;;;;;;;;5054409;28;20276;-63
2023/06/18 08:03:51;;;;;;;6.95;5.63;;;;;;;;;;5049826;28;20200;-63
2023/06/18 08:06:18;;;;;;;5.78;5.18;;;;;;;;;;5050092;28;20202;-63
2023/06/18 08:08:48;;;;;;;5.88;5.32;;;;;;;;;;5053215;28;20675;-63
2023/06/18 08:11:17;;;;;;;5.80;5.20;;;;;;;;;;5062179;28;20424;-61
2023/06/18 08:13:45;;;;;;;6.45;5.50;;;;;;;;;;5055476;28;20228;-61
2023/06/18 08:16:12;;;;;;;7.05;5.65;;;;;;;;;;5055069;28;20202;-62
2023/06/18 08:18:40;;;;;;;6.38;5.25;;;;;;;;;;5054835;28;20680;-62
2023/06/18 08:21:08;;;;;;;8.00;5.78;;;;;;;;;;5051307;28;21213;-62
2023/06/18 08:23:35;;;;;;;8.85;5.80;;;;;;;;;;5053564;28;20235;-62
2023/06/18 08:26:02;;;;;;;7.47;5.28;;;;;;;;;;5061434;28;20201;-63
2023/06/18 08:28:30;;;;;;;7.75;5.30;;;;;;;;;;5067523;28;20209;-63
2023/06/18 08:30:58;;;;;;;7.32;5.63;;;;;;;;;;5054423;28;20297;-60
2023/06/18 08:33:26;;;;;;;7.95;5.28;;;;;;;;;;5058615;28;20226;-62
2023/06/18 08:35:54;;;;;;;6.25;5.57;;;;;;;;;;5057564;28;20204;-62
2023/06/18 08:38:21;;;;;;;6.30;5.70;;;;;;;;;;5047262;28;20214;-62
2023/06/18 08:41:01;;;;;;;7.05;5.45;;;;;;;;;;5049311;28;20228;-63
2023/06/18 08:43:32;;;;;;;6.57;5.28;;;;;;;;;;5043827;28;20225;-63
2023/06/18 08:46:10;;;;;;;8.35;5.40;;;;;;;;;;5050908;28;20236;-63
2023/06/18 08:48:41;;;;;;;6.22;5.32;;;;;;;;;;5061291;28;20201;-62
2023/06/18 08:51:09;;;;;;;5.80;5.30;;;;;;;;;;5056070;28;20655;-63
2023/06/18 08:53:39;;;;;;;8.00;5.00;;;;;;;;;;5048417;28;20307;-63
2023/06/18 08:56:07;;;;;;;5.93;5.30;;;;;;;;;;5057690;28;20206;-63
2023/06/18 08:58:39;;;;;;;8.15;5.60;;;;;;;;;;5057237;28;20209;-65
2023/06/18 09:01:08;;;;;;;7.07;5.28;;;;;;;;;;5056048;28;20233;-62
2023/06/18 09:03:37;;;;;;;5.80;5.30;;;;;;;;;;5054378;28;20254;-63
2023/06/18 09:06:05;;;;;;;7.15;5.40;;;;;;;;;;5050363;28;20202;-64
2023/06/18 09:08:33;;;;;;;5.57;4.95;;;;;;;;;;5080369;28;20723;-64
2023/06/18 09:11:00;;;;;;;7.72;5.03;;;;;;;;;;5078688;28;20201;-63
2023/06/18 09:13:28;;;;;;;6.30;5.72;;;;;;;;;;5075081;28;20240;-63
2023/06/18 09:15:56;;;;;;;5.95;5.35;;;;;;;;;;5068859;28;20197;-62
2023/06/18 09:18:24;;;;;;;5.60;5.10;;;;;;;;;;5066914;28;20201;-63
2023/06/18 09:20:55;;;;;;;6.82;5.28;;;;;;;;;;5071243;28;20707;-65
2023/06/18 09:23:22;;;;;;;5.28;4.82;;;;;;;;;;5074408;28;20233;-62
2023/06/18 09:25:51;;;;;;;5.47;4.95;;;;;;;;;;5071826;28;20212;-62
2023/06/18 09:28:19;;;;;;;5.90;4.97;;;;;;;;;;5073068;28;20250;-63
2023/06/18 09:30:51;;;;;;;5.50;5.00;;;;;;;;;;5074576;28;20201;-63
2023/06/18 09:33:28;;;;;;;5.35;4.85;;;;;;;;;;5066677;28;20692;-63
2023/06/18 09:36:06;;;;;;;5.70;5.20;;;;;;;;;;5065575;28;20198;-63
2023/06/18 09:38:39;;;;;;;5.72;5.22;;;;;;;;;;5068109;28;20663;-63
2023/06/18 09:41:14;;;;;;;5.93;5.32;;;;;;;;;;5064507;28;20617;-60
2023/06/18 09:43:43;;;;;;;5.28;4.80;;;;;;;;;;5059981;28;20232;-62
2023/06/18 09:46:12;;;;;;;6.53;5.43;;;;;;;;;;5044781;28;20231;-62
2023/06/18 09:48:41;;;;;;;8.90;7.88;;;;;;;;;;5067793;28;20675;-64
2023/06/18 09:51:08;;;;;;;5.85;5.32;;;;;;;;;;5046057;28;20213;-61
2023/06/18 09:53:36;;;;;;;5.15;4.57;;;;;;;;;;5062444;28;20236;-64
2023/06/18 09:56:10;;;;;;;5.75;4.95;;;;;;;;;;5059181;28;20202;-64
2023/06/18 09:58:41;;;;;;;6.13;5.63;;;;;;;;;;5045379;28;20222;-63
2023/06/18 10:01:09;;;;;;;5.85;5.13;;;;;;;;;;5060207;28;20235;-62
2023/06/18 10:03:37;;;;;;;5.35;4.85;;;;;;;;;;5067058;28;20230;-64
2023/06/18 10:06:24;;;;;;;5.28;4.88;;;;;;;;;;5048511;28;20225;-65
2023/06/18 10:08:53;;;;;;;5.40;5.00;;;;;;;;;;5049927;28;20210;-64
2023/06/18 10:11:21;;;;;;;6.75;5.15;;;;;;;;;;5066238;28;20255;-64
2023/06/18 10:13:50;;;;;;;5.68;5.18;;;;;;;;;;5055984;28;20786;-64
2023/06/18 10:16:19;;;;;;;5.50;5.00;;;;;;;;;;5060617;28;21202;-64
2023/06/18 10:19:01;;;;;;;6.47;5.28;;;;;;;;;;5050473;28;20197;-61
2023/06/18 10:21:29;;;;;;;6.43;5.78;;;;;;;;;;5056097;28;20620;-62
2023/06/18 10:23:59;;;;;;;5.22;4.72;;;;;;;;;;5045538;28;20225;-64
2023/06/18 10:26:29;;;;;;;7.18;5.90;;;;;;;;;;5053398;28;20301;-63
2023/06/18 10:28:56;;;;;;;6.85;5.60;;;;;;;;;;5068081;28;21041;-64
2023/06/18 10:31:24;;;;;;;6.47;4.95;;;;;;;;;;5063946;28;20217;-64
2023/06/18 10:33:52;;;;;;;6.00;5.50;;;;;;;;;;5048490;28;20286;-65
2023/06/18 10:36:20;;;;;;;5.90;4.97;;;;;;;;;;5059928;28;20197;-65
2023/06/18 10:38:47;;;;;;;7.25;5.47;;;;;;;;;;5059151;28;20198;-61
2023/06/18 10:41:18;;;;;;;6.05;5.50;;;;;;;;;;5060343;28;20647;-61
2023/06/18 10:43:50;;;;;;;6.93;5.85;;;;;;;;;;5046434;28;20230;-61
2023/06/18 10:46:18;;;;;;;6.68;5.40;;;;;;;;;;5058084;28;20287;-63
2023/06/18 10:49:04;;;;;;;5.65;5.15;;;;;;;;;;5048484;28;20640;-63
2023/06/18 10:51:32;;;;;;;5.80;5.20;;;;;;;;;;5035566;28;20201;-62
2023/06/18 10:54:18;;;;;;;5.40;4.90;;;;;;;;;;5065041;28;20244;-60
2023/06/18 10:56:53;;;;;;;6.63;5.93;;;;;;;;;;5059729;28;20206;-63
2023/06/18 10:59:38;;;;;;;5.97;5.38;;;;;;;;;;5059598;28;21648;-65
2023/06/18 11:02:06;;;;;;;5.85;5.35;;;;;;;;;;5057778;28;20252;-63
2023/06/18 11:04:34;;;;;;;7.40;5.00;;;;;;;;;;5060418;28;20214;-63
2023/06/18 11:07:11;;;;;;;5.65;5.20;;;;;;;;;;5039801;28;20235;-62
2023/06/18 11:09:50;;;;;;;5.78;5.28;;;;;;;;;;5060286;28;20201;-61
2023/06/18 11:12:18;;;;;;;6.07;5.50;;;;;;;;;;5052400;28;20229;-62
2023/06/18 11:15:04;;;;;;;6.00;4.78;;;;;;;;;;5047997;28;21254;-62
2023/06/18 11:17:34;;;;;;;6.10;5.50;;;;;;;;;;5047898;28;20899;-64
2023/06/18 11:20:03;;;;;;;7.57;5.30;;;;;;;;;;5050476;28;20204;-64
2023/06/18 11:22:31;;;;;;;5.45;4.95;;;;;;;;;;5056676;28;20638;-62
2023/06/18 11:24:58;;;;;;;6.38;5.40;;;;;;;;;;5037399;28;20276;-67
2023/06/18 11:27:26;;;;;;;6.40;5.80;;;;;;;;;;5046517;28;20200;-62
2023/06/18 11:29:57;;;;;;;7.57;5.32;;;;;;;;;;5045448;28;20247;-64
2023/06/18 11:32:27;;;;;;;5.30;4.90;;;;;;;;;;5044239;28;20241;-65
2023/06/18 11:34:57;;;;;;;5.60;5.20;;;;;;;;;;5051478;28;20228;-65
2023/06/18 11:37:25;;;;;;;6.63;6.03;;;;;;;;;;5051186;28;20282;-62
2023/06/18 11:39:53;;;;;;;6.07;5.55;;;;;;;;;;5026271;28;20388;-63
2023/06/18 11:42:22;;;;;;;5.72;5.22;;;;;;;;;;5038961;28;20213;-66
2023/06/18 11:44:53;;;;;;;6.72;5.25;;;;;;;;;;5050826;28;20214;-61
2023/06/18 11:47:20;;;;;;;7.88;5.13;;;;;;;;;;5044901;28;20199;-62
2023/06/18 11:49:49;;;;;;;5.82;5.28;;;;;;;;;;5040543;28;20199;-62
2023/06/18 11:52:22;;;;;;;5.32;4.93;;;;;;;;;;5039922;28;20229;-61
2023/06/18 11:54:52;;;;;;;6.00;5.45;;;;;;;;;;5039472;28;20222;-62
2023/06/18 11:57:22;;;;;;;5.82;5.25;;;;;;;;;;5034908;28;20203;-62
2023/06/18 11:59:51;;;;;;;5.50;5.00;;;;;;;;;;5034615;28;20235;-61
2023/06/18 12:02:24;;;;;;;5.53;5.07;;;;;;;;;;5025332;28;20225;-61
2023/06/18 12:04:52;;;;;;;5.97;5.15;;;;;;;;;;5032450;28;20209;-61
2023/06/18 12:07:20;;;;;;;5.70;5.20;;;;;;;;;;5032651;28;20213;-62
2023/06/18 12:10:03;;;;;;;6.38;5.78;;;;;;;;;;5031064;28;20694;-61
2023/06/18 12:12:41;;;;;;;5.57;5.13;;;;;;;;;;5012045;28;20238;-64
2023/06/18 12:15:12;;;;;;;5.38;4.97;;;;;;;;;;5033775;28;21344;-63
2023/06/18 12:17:49;;;;;;;5.35;4.95;;;;;;;;;;5042627;28;20642;-63
2023/06/18 12:20:20;;;;;;;5.55;5.03;;;;;;;;;;5048790;28;20066;-62
2023/06/18 12:22:47;;;;;;;6.00;5.50;;;;;;;;;;5037720;28;20306;-62
2023/06/18 12:25:22;;;;;;;5.95;5.38;;;;;;;;;;5038554;28;21514;-61
2023/06/18 12:27:54;;;;;;;6.78;5.07;;;;;;;;;;5034675;28;20209;-62
2023/06/18 12:30:28;;;;;;;5.53;5.05;;;;;;;;;;5043698;28;20227;-62
2023/06/18 12:33:15;;;;;;;5.97;5.45;;;;;;;;;;5040623;28;20218;-62
2023/06/18 12:35:50;;;;;;;5.50;5.00;;;;;;;;;;5043755;28;22055;-63
2023/06/18 12:38:20;;;;;;;5.30;4.85;;;;;;;;;;5046964;28;20196;-62
2023/06/18 12:40:49;;;;;;;5.50;5.10;;;;;;;;;;5042339;28;20204;-62
2023/06/18 12:43:18;;;;;;;5.57;5.07;;;;;;;;;;5048937;28;20221;-63
2023/06/18 12:45:50;;;;;;;5.93;5.32;;;;;;;;;;5048576;28;20313;-62
2023/06/18 12:48:28;;;;;;;5.80;5.20;;;;;;;;;;5042698;28;20251;-63
2023/06/18 12:50:56;;;;;;;5.57;5.18;;;;;;;;;;5036764;28;20209;-63
2023/06/18 12:53:24;;;;;;;6.10;4.95;;;;;;;;;;5045714;28;20780;-62
2023/06/18 12:55:56;;;;;;;5.57;5.07;;;;;;;;;;5037999;28;20232;-62
2023/06/18 12:58:29;;;;;;;6.32;5.10;;;;;;;;;;5055610;28;20209;-63
2023/06/18 13:00:57;;;;;;;6.10;5.50;;;;;;;;;;5036727;28;20224;-62
2023/06/18 13:03:26;;;;;;;6.82;5.30;;;;;;;;;;5034898;28;20226;-62
2023/06/18 13:05:54;;;;;;;5.68;5.00;;;;;;;;;;5053532;28;20196;-62
2023/06/18 13:08:22;;;;;;;5.95;4.88;;;;;;;;;;5042788;28;20217;-61
2023/06/18 13:10:51;;;;;;;5.32;4.82;;;;;;;;;;5031506;28;20684;-62
2023/06/18 13:13:19;;;;;;;5.55;5.10;;;;;;;;;;5049681;28;20270;-62
2023/06/18 13:15:47;;;;;;;5.50;4.95;;;;;;;;;;5049155;28;20240;-62
2023/06/18 13:18:18;;;;;;;5.88;5.20;;;;;;;;;;5051055;28;20221;-62
2023/06/18 13:20:47;;;;;;;5.82;5.20;;;;;;;;;;5044562;28;20209;-62
2023/06/18 13:23:15;;;;;;;5.60;5.10;;;;;;;;;;5041261;28;20225;-62
2023/06/18 13:25:43;;;;;;;5.28;4.88;;;;;;;;;;5054482;28;20587;-62
2023/06/18 13:28:11;;;;;;;5.60;5.10;;;;;;;;;;5052780;28;20214;-62
2023/06/18 13:30:38;;;;;;;5.80;5.22;;;;;;;;;;5046739;28;20837;-62
2023/06/18 13:33:06;;;;;;;5.75;5.28;;;;;;;;;;5048875;28;20311;-62
2023/06/18 13:35:34;;;;;;;5.45;4.95;;;;;;;;;;5045771;28;20218;-61
2023/06/18 13:38:01;;;;;;;5.30;4.90;;;;;;;;;;5049456;28;20570;-62
2023/06/18 13:40:29;;;;;;;7.75;5.00;;;;;;;;;;5047472;28;20755;-61
2023/06/18 13:42:58;;;;;;;5.82;5.32;;;;;;;;;;5050688;28;20295;-61
2023/06/18 13:45:25;;;;;;;6.00;5.40;;;;;;;;;;5057745;28;20295;-62
2023/06/18 13:47:53;;;;;;;5.50;5.10;;;;;;;;;;5055840;28;20623;-62
2023/06/18 13:50:20;;;;;;;5.47;5.07;;;;;;;;;;5063544;28;20710;-62
2023/06/18 13:52:48;;;;;;;5.38;4.97;;;;;;;;;;5058743;28;20894;-62
2023/06/18 13:55:16;;;;;;;6.28;5.32;;;;;;;;;;5052903;28;20835;-64
2023/06/18 13:57:43;;;;;;;5.57;5.10;;;;;;;;;;5053340;28;20219;-62
2023/06/18 14:00:11;;;;;;;5.95;5.35;;;;;;;;;;5046002;28;20248;-62
2023/06/18 14:02:38;;;;;;;5.80;5.30;;;;;;;;;;5047854;28;20221;-63
2023/06/18 14:05:07;;;;;;;5.30;4.80;;;;;;;;;;5032327;28;20255;-64
2023/06/18 14:07:35;;;;;;;7.68;5.32;;;;;;;;;;5029242;28;20215;-61
2023/06/18 14:10:03;;;;;;;6.63;5.10;;;;;;;;;;5044048;28;20205;-62
2023/06/18 14:12:31;;;;;;;5.82;5.30;;;;;;;;;;5038322;28;20252;-63
2023/06/18 14:14:59;;;;;;;5.60;5.07;;;;;;;;;;5052736;28;20797;-64
2023/06/18 14:17:26;;;;;;;5.70;5.20;;;;;;;;;;5041801;28;20202;-63
2023/06/18 14:19:54;;;;;;;6.47;5.45;;;;;;;;;;5024928;28;20205;-62
2023/06/18 14:22:21;;;;;;;6.20;5.70;;;;;;;;;;5035746;28;20256;-62
2023/06/18 14:24:52;;;;;;;5.75;5.10;;;;;;;;;;5048895;28;20291;-62
2023/06/18 14:27:20;;;;;;;5.53;5.07;;;;;;;;;;5033185;28;20202;-62
2023/06/18 14:29:48;;;;;;;5.57;5.07;;;;;;;;;;5024487;28;20357;-62
2023/06/18 14:32:15;;;;;;;6.13;4.55;;;;;;;;;;5039316;28;20279;-61
2023/06/18 14:34:42;;;;;;;4.88;4.47;;;;;;;;;;5034636;28;20607;-62
2023/06/18 14:37:10;;;;;;;6.80;4.75;;;;;;;;;;5035486;28;20890;-61
2023/06/18 14:39:37;;;;;;;5.20;4.80;;;;;;;;;;5040479;28;20220;-62
2023/06/18 14:42:05;;;;;;;7.07;5.15;;;;;;;;;;5038668;28;20225;-62
2023/06/18 14:44:32;;;;;;;5.63;4.80;;;;;;;;;;5039077;28;20213;-62
2023/06/18 14:47:00;;;;;;;4.97;4.57;;;;;;;;;;5045985;28;20206;-63
2023/06/18 14:49:27;;;;;;;5.43;4.93;;;;;;;;;;5042630;28;20626;-62
2023/06/18 14:51:54;;;;;;;5.20;4.80;;;;;;;;;;5045426;28;20225;-66